Time;durP1;ratioP1;P1;durP2;ratioP2;P2;SDS_P1;SDS_P2;PMS_P1;PMS_P2;Temp;Humidity;BMP_temperature;BMP_pressure;BME280_temperature;BME280_humidity;BME280_pressure;Samples;Min_cycle;Max_cycle;Signal;HPM_P1;HPM_P2
2022/07/28 00:01:14;;;;;;;2.17;1.00;;;16.40;99.90;;;;;;5009281;28;20213;-52
2022/07/28 00:03:47;;;;;;;4.37;1.37;;;16.30;99.90;;;;;;5019906;28;20235;-52
2022/07/28 00:06:15;;;;;;;3.23;1.17;;;16.30;99.90;;;;;;5010363;28;20201;-53
2022/07/28 00:08:45;;;;;;;1.50;1.00;;;16.20;99.90;;;;;;5010940;28;20204;-54
2022/07/28 00:11:16;;;;;;;1.90;1.00;;;16.30;99.90;;;;;;5008051;28;20204;-54
2022/07/28 00:13:43;;;;;;;4.50;1.73;;;16.20;99.90;;;;;;5008784;28;20351;-53
2022/07/28 00:16:10;;;;;;;2.80;1.17;;;16.20;99.90;;;;;;5009721;28;20230;-53
2022/07/28 00:18:39;;;;;;;2.17;1.03;;;16.10;99.90;;;;;;5010329;28;20672;-55
2022/07/28 00:21:10;;;;;;;2.10;1.10;;;16.10;99.90;;;;;;5010814;28;21599;-54
2022/07/28 00:23:38;;;;;;;2.80;1.00;;;16.20;99.90;;;;;;5014858;28;20215;-54
2022/07/28 00:26:07;;;;;;;2.77;1.10;;;16.30;99.90;;;;;;5012577;28;20607;-54
2022/07/28 00:28:35;;;;;;;3.57;1.30;;;16.20;99.90;;;;;;5013849;28;20680;-55
2022/07/28 00:31:04;;;;;;;2.00;1.10;;;16.20;99.90;;;;;;5018414;28;20636;-55
2022/07/28 00:33:41;;;;;;;3.00;0.90;;;16.20;99.90;;;;;;5018097;28;20215;-53
2022/07/28 00:36:09;;;;;;;1.30;1.00;;;16.10;99.90;;;;;;5011875;28;20209;-54
2022/07/28 00:38:40;;;;;;;3.13;1.20;;;16.10;99.90;;;;;;5010687;28;20501;-53
2022/07/28 00:41:10;;;;;;;2.43;1.13;;;16.20;99.90;;;;;;5021959;28;20219;-51
2022/07/28 00:43:42;;;;;;;2.20;1.00;;;16.10;99.90;;;;;;5011158;28;20209;-54
2022/07/28 00:46:10;;;;;;;3.23;0.87;;;16.10;99.90;;;;;;5011042;28;20206;-51
2022/07/28 00:48:51;;;;;;;3.20;0.93;;;16.10;99.90;;;;;;5017266;28;20655;-53
2022/07/28 00:51:23;;;;;;;1.83;1.20;;;16.20;99.90;;;;;;5013903;28;20275;-53
2022/07/28 00:53:56;;;;;;;4.40;1.13;;;16.10;99.90;;;;;;5012363;28;20221;-53
2022/07/28 00:56:25;;;;;;;4.90;1.20;;;16.10;99.90;;;;;;5028712;28;20671;-53
2022/07/28 00:58:52;;;;;;;1.60;0.80;;;16.10;99.90;;;;;;5012999;28;20256;-53
2022/07/28 01:01:20;;;;;;;2.80;1.10;;;16.10;99.90;;;;;;5013233;28;21346;-52
2022/07/28 01:03:51;;;;;;;3.47;1.27;;;16.20;99.90;;;;;;5014006;28;20563;-53
2022/07/28 01:06:30;;;;;;;2.43;1.30;;;15.80;99.90;;;;;;5027465;28;20650;-52
2022/07/28 01:09:27;;;;;;;1.80;0.80;;;15.90;99.90;;;;;;5012833;28;20208;-56
2022/07/28 01:12:15;;;;;;;2.33;0.90;;;15.90;99.90;;;;;;5013061;28;20290;-53
2022/07/28 01:15:00;;;;;;;4.17;1.33;;;15.90;99.90;;;;;;5014694;28;20204;-53
2022/07/28 01:17:49;;;;;;;3.80;1.30;;;15.90;99.90;;;;;;5010742;28;20692;-52
2022/07/28 01:20:29;;;;;;;5.67;1.30;;;15.80;99.90;;;;;;5014527;28;20218;-53
2022/07/28 01:23:11;;;;;;;1.60;0.90;;;15.80;99.90;;;;;;5013914;28;20229;-53
2022/07/28 01:25:39;;;;;;;5.13;1.20;;;15.60;99.90;;;;;;5011468;28;20448;-54
2022/07/28 01:28:42;;;;;;;2.80;1.30;;;15.50;99.90;;;;;;5020527;28;20293;-53
2022/07/28 01:31:15;;;;;;;1.93;1.17;;;15.60;99.90;;;;;;5010770;28;20200;-54
2022/07/28 01:33:50;;;;;;;2.57;1.30;;;15.70;99.90;;;;;;5021448;28;20229;-54
2022/07/28 01:36:21;;;;;;;3.17;0.80;;;15.70;99.90;;;;;;5011669;28;20211;-53
2022/07/28 01:38:49;;;;;;;2.20;0.93;;;15.60;99.90;;;;;;5012892;28;20209;-51
2022/07/28 01:41:20;;;;;;;1.63;0.90;;;15.70;99.90;;;;;;5010609;28;20220;-54
2022/07/28 01:43:57;;;;;;;1.77;1.20;;;15.70;99.90;;;;;;5012996;28;20205;-53
2022/07/28 01:46:29;;;;;;;2.40;0.83;;;15.70;99.90;;;;;;5017171;28;20575;-54
2022/07/28 01:48:58;;;;;;;1.37;0.80;;;15.80;99.90;;;;;;5011233;28;20204;-53
2022/07/28 01:51:29;;;;;;;3.00;1.00;;;15.80;99.90;;;;;;5012544;28;20201;-52
2022/07/28 01:54:02;;;;;;;4.37;1.43;;;15.70;99.90;;;;;;5012443;28;20225;-54
2022/07/28 01:56:31;;;;;;;2.83;1.07;;;15.70;99.90;;;;;;5012551;28;20208;-53
2022/07/28 01:59:04;;;;;;;1.73;0.67;;;15.70;99.90;;;;;;5040670;28;20745;-51
2022/07/28 02:01:35;;;;;;;3.73;1.00;;;15.80;99.90;;;;;;5015638;28;20307;-54
2022/07/28 02:04:07;;;;;;;2.93;1.00;;;15.80;99.90;;;;;;5013525;28;20322;-53
2022/07/28 02:06:34;;;;;;;2.23;0.97;;;15.70;99.90;;;;;;5011113;28;20216;-54
2022/07/28 02:09:04;;;;;;;2.30;0.87;;;15.70;99.90;;;;;;5007663;28;20200;-53
2022/07/28 02:11:39;;;;;;;1.20;0.90;;;15.60;99.90;;;;;;5046015;28;20194;-53
2022/07/28 02:14:21;;;;;;;2.17;0.90;;;15.60;99.90;;;;;;5000112;28;20204;-52
2022/07/28 02:17:06;;;;;;;0.80;0.60;;;15.60;99.90;;;;;;5012443;28;20218;-53
2022/07/28 02:19:36;;;;;;;5.43;0.93;;;15.60;99.90;;;;;;5009488;28;20211;-53
2022/07/28 02:22:05;;;;;;;3.20;0.90;;;15.70;99.90;;;;;;5013011;28;20222;-53
2022/07/28 02:24:36;;;;;;;3.67;1.23;;;15.60;99.90;;;;;;5011698;28;20715;-53
2022/07/28 02:27:11;;;;;;;1.30;0.90;;;15.50;99.90;;;;;;5008903;28;20851;-53
2022/07/28 02:29:44;;;;;;;2.07;0.80;;;15.60;99.90;;;;;;5009617;28;20206;-54
2022/07/28 02:32:58;;;;;;;2.93;1.03;;;15.70;99.90;;;;;;5011920;28;20263;-53
2022/07/28 02:35:35;;;;;;;1.77;0.90;;;15.70;99.90;;;;;;5006027;28;20212;-52
2022/07/28 02:38:12;;;;;;;2.13;0.90;;;15.60;99.90;;;;;;5009755;28;20215;-53
2022/07/28 02:40:44;;;;;;;5.70;1.00;;;15.70;99.90;;;;;;5010080;28;20306;-52
2022/07/28 02:43:24;;;;;;;1.80;0.80;;;15.60;99.90;;;;;;5010863;28;20216;-54
2022/07/28 02:46:17;;;;;;;1.23;0.90;;;15.60;99.90;;;;;;5009702;28;20200;-53
2022/07/28 02:48:49;;;;;;;2.30;1.20;;;15.50;99.90;;;;;;5011298;28;20563;-54
2022/07/28 02:51:23;;;;;;;0.93;0.80;;;15.60;99.90;;;;;;5010889;28;20213;-54
2022/07/28 02:53:52;;;;;;;4.10;0.80;;;15.50;99.90;;;;;;5013593;28;20271;-53
2022/07/28 02:56:22;;;;;;;3.30;1.00;;;15.50;99.90;;;;;;5001966;28;20529;-54
2022/07/28 02:58:51;;;;;;;1.60;0.93;;;15.50;99.90;;;;;;5009999;28;20641;-53
2022/07/28 03:01:21;;;;;;;4.07;1.00;;;15.50;99.90;;;;;;5010964;28;20210;-53
2022/07/28 03:03:51;;;;;;;4.67;0.87;;;15.40;99.90;;;;;;5011129;28;20197;-53
2022/07/28 03:06:22;;;;;;;5.43;1.03;;;15.50;99.90;;;;;;5009552;28;20951;-54
2022/07/28 03:08:54;;;;;;;1.87;0.93;;;15.50;99.90;;;;;;5009769;28;20202;-52
2022/07/28 03:11:21;;;;;;;2.63;0.93;;;15.40;99.90;;;;;;5011472;28;20707;-54
2022/07/28 03:13:49;;;;;;;1.63;0.90;;;15.50;99.90;;;;;;5010384;28;20197;-53
2022/07/28 03:16:16;;;;;;;2.20;1.17;;;15.50;99.90;;;;;;5008851;28;20865;-53
2022/07/28 03:18:43;;;;;;;3.70;1.10;;;15.50;99.90;;;;;;5007503;28;20232;-53
2022/07/28 03:21:10;;;;;;;3.13;1.20;;;15.60;99.90;;;;;;5006994;28;20208;-53
2022/07/28 03:23:41;;;;;;;3.73;1.20;;;15.40;99.90;;;;;;5010355;28;20212;-55
2022/07/28 03:26:31;;;;;;;3.40;1.20;;;15.40;99.90;;;;;;5010621;28;20563;-52
2022/07/28 03:28:59;;;;;;;2.10;1.10;;;15.40;99.90;;;;;;5011140;28;20239;-54
2022/07/28 03:31:27;;;;;;;2.90;1.03;;;15.20;99.90;;;;;;5008905;28;20251;-54
2022/07/28 03:33:54;;;;;;;2.30;0.97;;;15.30;99.90;;;;;;5011724;28;20258;-56
2022/07/28 03:36:29;;;;;;;3.53;1.00;;;15.20;99.90;;;;;;5009729;28;20197;-53
2022/07/28 03:39:00;;;;;;;2.30;0.90;;;15.00;99.90;;;;;;5006438;28;20242;-54
2022/07/28 03:41:31;;;;;;;3.37;1.00;;;15.10;99.90;;;;;;5024397;28;20237;-55
2022/07/28 03:43:59;;;;;;;1.87;0.97;;;15.20;99.90;;;;;;5010052;28;20219;-54
2022/07/28 03:46:27;;;;;;;2.73;1.20;;;15.20;99.90;;;;;;5008479;28;20249;-53
2022/07/28 03:48:54;;;;;;;3.20;0.90;;;15.20;99.90;;;;;;5024987;28;20205;-54
2022/07/28 03:51:21;;;;;;;4.23;1.10;;;15.10;99.90;;;;;;5012446;28;20204;-53
2022/07/28 03:53:50;;;;;;;5.33;1.00;;;15.20;99.90;;;;;;5009805;28;20279;-54
2022/07/28 03:56:18;;;;;;;1.90;1.10;;;15.00;99.90;;;;;;5011061;28;20669;-54
2022/07/28 03:58:45;;;;;;;2.07;1.13;;;15.00;99.90;;;;;;5011676;28;20214;-52
2022/07/28 04:01:12;;;;;;;2.00;1.10;;;15.00;99.90;;;;;;5016293;28;20626;-53
2022/07/28 04:03:39;;;;;;;2.70;1.00;;;14.90;99.90;;;;;;5012905;28;20242;-53
2022/07/28 04:06:13;;;;;;;1.70;1.07;;;14.90;99.90;;;;;;5013190;28;20210;-55
2022/07/28 04:08:45;;;;;;;2.90;1.10;;;14.90;99.90;;;;;;5013155;28;20298;-55
2022/07/28 04:11:12;;;;;;;3.00;1.53;;;15.00;99.90;;;;;;5012649;28;20200;-54
2022/07/28 04:13:42;;;;;;;3.77;1.77;;;15.00;99.90;;;;;;4988245;28;20211;-53
2022/07/28 04:16:12;;;;;;;3.67;1.30;;;14.90;99.90;;;;;;5011998;28;20544;-53
2022/07/28 04:18:43;;;;;;;2.33;1.30;;;14.80;99.90;;;;;;5012567;28;20207;-55
2022/07/28 04:21:11;;;;;;;3.13;1.20;;;14.80;99.90;;;;;;5012819;28;20295;-54
2022/07/28 04:23:38;;;;;;;4.63;1.37;;;14.70;99.90;;;;;;5012213;28;22228;-53
2022/07/28 04:26:05;;;;;;;3.00;1.40;;;14.70;99.90;;;;;;5012604;28;20199;-52
2022/07/28 04:28:32;;;;;;;2.10;1.10;;;14.60;99.90;;;;;;5047670;28;20208;-53
2022/07/28 04:30:59;;;;;;;3.10;1.00;;;14.80;99.90;;;;;;5011524;28;20207;-54
2022/07/28 04:33:27;;;;;;;2.00;1.40;;;14.80;99.90;;;;;;5013335;28;20303;-53
2022/07/28 04:35:54;;;;;;;4.20;1.10;;;14.70;99.90;;;;;;5010773;28;20234;-53
2022/07/28 04:38:21;;;;;;;3.17;1.23;;;14.70;99.90;;;;;;5000405;28;20661;-52
2022/07/28 04:40:51;;;;;;;2.73;1.47;;;14.60;99.90;;;;;;5009377;28;20745;-52
2022/07/28 04:43:18;;;;;;;3.90;1.17;;;14.80;99.90;;;;;;5013481;28;20265;-52
2022/07/28 04:45:50;;;;;;;2.97;1.17;;;14.80;99.90;;;;;;5011726;28;20208;-52
2022/07/28 04:48:21;;;;;;;6.37;1.13;;;14.80;99.90;;;;;;5000429;28;20235;-55
2022/07/28 04:50:50;;;;;;;3.37;1.20;;;14.80;99.90;;;;;;5012536;28;20216;-54
2022/07/28 04:53:23;;;;;;;3.90;1.13;;;14.70;99.90;;;;;;5012271;28;20664;-53
2022/07/28 04:55:51;;;;;;;5.70;1.17;;;14.70;99.90;;;;;;5010426;28;20235;-53
2022/07/28 04:58:23;;;;;;;3.63;0.97;;;14.70;99.90;;;;;;5016214;28;20294;-53
2022/07/28 05:00:51;;;;;;;2.30;1.33;;;14.70;99.90;;;;;;5027835;28;20628;-53
2022/07/28 05:03:37;;;;;;;5.93;1.00;;;14.70;99.90;;;;;;5017930;28;20624;-53
2022/07/28 05:06:05;;;;;;;2.37;1.00;;;14.70;99.90;;;;;;5014880;28;20212;-53
2022/07/28 05:08:32;;;;;;;3.73;1.10;;;14.90;99.90;;;;;;5014276;28;20206;-54
2022/07/28 05:10:59;;;;;;;2.03;1.00;;;14.80;99.90;;;;;;5011319;28;20209;-53
2022/07/28 05:13:26;;;;;;;2.37;1.00;;;14.90;99.90;;;;;;5010932;28;20317;-53
2022/07/28 05:16:00;;;;;;;3.93;1.30;;;14.90;99.90;;;;;;5011673;28;20212;-54
2022/07/28 05:18:28;;;;;;;2.07;1.27;;;14.90;99.90;;;;;;5008145;28;20686;-53
2022/07/28 05:21:00;;;;;;;1.63;0.90;;;15.00;99.90;;;;;;5012936;28;20201;-54
2022/07/28 05:23:28;;;;;;;3.77;1.20;;;15.10;99.90;;;;;;5011044;28;20247;-53
2022/07/28 05:25:58;;;;;;;3.67;1.03;;;15.10;99.90;;;;;;5009104;28;20691;-53
2022/07/28 05:28:37;;;;;;;2.87;1.30;;;15.10;99.90;;;;;;5008773;28;20825;-53
2022/07/28 05:31:07;;;;;;;3.13;1.23;;;15.10;99.90;;;;;;5011267;28;20631;-53
2022/07/28 05:33:35;;;;;;;4.57;1.83;;;15.20;99.90;;;;;;5011920;28;20206;-53
2022/07/28 05:36:05;;;;;;;4.50;1.13;;;15.40;99.90;;;;;;5001172;28;20648;-55
2022/07/28 05:38:35;;;;;;;4.17;1.10;;;15.20;99.90;;;;;;5014297;28;20210;-53
2022/07/28 05:41:05;;;;;;;4.90;0.97;;;15.20;99.90;;;;;;5014053;28;20211;-54
2022/07/28 05:43:36;;;;;;;4.30;1.03;;;15.30;99.90;;;;;;5019216;28;20239;-54
2022/07/28 05:46:13;;;;;;;3.13;1.43;;;15.40;99.90;;;;;;5010080;28;20204;-54
2022/07/28 05:48:50;;;;;;;2.63;1.07;;;15.40;99.90;;;;;;5012129;28;20211;-54
2022/07/28 05:51:18;;;;;;;3.27;1.10;;;15.40;99.90;;;;;;5010242;28;20207;-54
2022/07/28 05:53:48;;;;;;;5.20;1.30;;;15.50;99.90;;;;;;5012366;28;20231;-54
2022/07/28 05:56:26;;;;;;;6.77;2.80;;;15.50;99.90;;;;;;5009531;28;20246;-52
2022/07/28 05:58:55;;;;;;;2.23;1.00;;;15.70;99.90;;;;;;4650148;28;9999779;-53
2022/07/28 06:01:23;;;;;;;5.70;1.10;;;15.70;99.90;;;;;;5009092;28;20213;-53
2022/07/28 06:03:59;;;;;;;3.87;1.30;;;15.80;99.90;;;;;;5021348;28;20238;-52
2022/07/28 06:06:47;;;;;;;2.93;0.90;;;15.80;99.90;;;;;;5012467;28;20738;-53
2022/07/28 06:09:17;;;;;;;3.30;1.30;;;16.00;99.90;;;;;;5011016;28;20785;-53
2022/07/28 06:11:56;;;;;;;2.40;1.33;;;16.10;99.90;;;;;;5015098;28;20276;-54
2022/07/28 06:14:24;;;;;;;2.83;1.00;;;16.00;99.90;;;;;;5011320;28;20203;-53
2022/07/28 06:16:54;;;;;;;3.33;1.10;;;16.20;99.90;;;;;;5009748;28;20307;-53
2022/07/28 06:19:21;;;;;;;4.20;1.07;;;16.00;99.90;;;;;;5011295;28;20217;-53
2022/07/28 06:21:51;;;;;;;3.47;1.30;;;16.00;99.90;;;;;;5013199;28;20654;-56
2022/07/28 06:24:18;;;;;;;7.30;1.30;;;16.20;99.90;;;;;;5009948;28;20677;-54
2022/07/28 06:26:45;;;;;;;2.17;1.00;;;16.20;99.90;;;;;;5014642;28;20339;-57
2022/07/28 06:29:12;;;;;;;1.73;1.00;;;16.20;99.90;;;;;;5013849;28;20212;-51
2022/07/28 06:31:40;;;;;;;2.93;0.80;;;16.30;99.90;;;;;;5018111;28;20212;-53
2022/07/28 06:34:17;;;;;;;1.87;1.03;;;16.30;99.90;;;;;;5016020;28;20220;-54
2022/07/28 06:36:48;;;;;;;2.57;1.00;;;16.30;99.90;;;;;;5016840;28;20827;-54
2022/07/28 06:39:16;;;;;;;3.20;0.93;;;16.30;99.90;;;;;;5009983;28;20197;-53
2022/07/28 06:41:43;;;;;;;4.20;1.20;;;16.10;99.90;;;;;;5008124;28;20264;-54
2022/07/28 06:44:11;;;;;;;4.37;1.10;;;16.20;99.90;;;;;;5004631;28;20721;-52
2022/07/28 06:46:38;;;;;;;4.50;1.07;;;16.20;99.90;;;;;;5008995;28;20320;-54
2022/07/28 06:49:08;;;;;;;2.73;1.10;;;16.30;99.90;;;;;;5006486;28;20266;-54
2022/07/28 06:51:38;;;;;;;2.63;0.87;;;16.40;99.90;;;;;;5005866;28;20206;-52
2022/07/28 06:54:11;;;;;;;5.17;0.90;;;16.60;99.90;;;;;;5001097;28;20865;-55
2022/07/28 06:56:39;;;;;;;3.37;0.90;;;16.70;99.90;;;;;;5010310;28;20820;-52
2022/07/28 06:59:07;;;;;;;3.30;0.80;;;16.90;99.90;;;;;;5010652;28;20704;-55
2022/07/28 07:01:38;;;;;;;4.20;1.07;;;16.90;99.90;;;;;;5009090;28;20205;-55
2022/07/28 07:04:07;;;;;;;4.23;0.90;;;17.10;99.90;;;;;;5008211;28;20281;-55
2022/07/28 07:06:38;;;;;;;2.30;0.70;;;17.00;99.90;;;;;;5018813;28;20249;-53
2022/07/28 07:09:08;;;;;;;4.73;1.40;;;17.10;99.90;;;;;;5042366;28;20189;-54
2022/07/28 07:11:36;;;;;;;3.40;1.37;;;17.30;99.90;;;;;;5014119;28;20216;-53
2022/07/28 07:14:07;;;;;;;3.27;1.10;;;17.40;99.90;;;;;;5009717;28;20215;-53
2022/07/28 07:16:34;;;;;;;3.57;0.83;;;17.30;99.90;;;;;;5027058;28;20209;-53
2022/07/28 07:19:03;;;;;;;2.57;0.93;;;17.40;99.90;;;;;;5013643;28;20215;-53
2022/07/28 07:21:33;;;;;;;4.70;0.87;;;17.40;99.90;;;;;;5000724;28;20208;-55
2022/07/28 07:24:01;;;;;;;4.63;0.80;;;17.30;99.90;;;;;;5012247;28;20742;-52
2022/07/28 07:26:28;;;;;;;1.40;0.70;;;17.50;99.90;;;;;;5013784;28;20375;-54
2022/07/28 07:28:58;;;;;;;2.37;0.80;;;17.60;99.90;;;;;;5018464;28;20204;-53
2022/07/28 07:31:26;;;;;;;3.33;0.80;;;17.70;99.90;;;;;;5012258;28;20213;-53
2022/07/28 07:33:55;;;;;;;2.87;0.97;;;17.70;99.90;;;;;;5013884;28;20236;-54
2022/07/28 07:36:22;;;;;;;4.10;0.87;;;17.90;99.90;;;;;;5016818;28;20204;-53
2022/07/28 07:38:50;;;;;;;2.20;0.70;;;18.10;99.90;;;;;;5018715;28;20208;-53
2022/07/28 07:41:20;;;;;;;1.50;0.70;;;18.10;99.90;;;;;;5016081;28;20212;-53
2022/07/28 07:43:48;;;;;;;4.37;0.90;;;18.20;99.90;;;;;;5013167;28;20765;-54
2022/07/28 07:46:18;;;;;;;1.37;0.80;;;18.20;99.90;;;;;;5014288;28;20213;-53
2022/07/28 07:48:51;;;;;;;1.33;0.80;;;18.30;99.90;;;;;;5017651;28;20236;-54
2022/07/28 07:51:21;;;;;;;3.10;0.70;;;18.40;99.90;;;;;;5014431;28;20265;-53
2022/07/28 07:53:51;;;;;;;3.87;1.00;;;18.90;99.90;;;;;;5012816;28;20231;-54
2022/07/28 07:56:21;;;;;;;3.53;0.90;;;19.20;99.90;;;;;;5013425;28;20908;-55
2022/07/28 07:58:50;;;;;;;3.20;1.00;;;19.20;99.90;;;;;;5015589;28;20567;-54
2022/07/28 08:01:22;;;;;;;2.10;0.60;;;18.60;99.90;;;;;;5015021;28;20205;-54
2022/07/28 08:03:50;;;;;;;2.67;0.60;;;18.80;99.90;;;;;;5028927;28;20215;-55
2022/07/28 08:06:19;;;;;;;3.30;0.87;;;18.70;99.90;;;;;;5015070;28;20212;-53
2022/07/28 08:08:56;;;;;;;2.00;0.90;;;18.90;99.90;;;;;;5017350;28;20193;-54
2022/07/28 08:11:23;;;;;;;4.27;1.30;;;19.10;99.90;;;;;;5013725;28;20216;-54
2022/07/28 08:13:50;;;;;;;1.83;0.63;;;19.20;99.90;;;;;;5012481;28;20205;-54
2022/07/28 08:16:17;;;;;;;2.87;1.00;;;19.30;99.90;;;;;;5014730;28;20209;-54
2022/07/28 08:18:44;;;;;;;1.63;0.70;;;19.50;99.90;;;;;;5008725;28;20255;-54
2022/07/28 08:21:12;;;;;;;1.77;0.63;;;19.70;99.90;;;;;;5013530;28;20223;-54
2022/07/28 08:23:39;;;;;;;0.63;0.50;;;19.90;99.90;;;;;;5011969;28;20209;-55
2022/07/28 08:26:06;;;;;;;2.40;0.90;;;20.10;99.90;;;;;;5017573;28;20258;-53
2022/07/28 08:28:33;;;;;;;3.87;0.80;;;20.40;99.90;;;;;;4999078;28;20205;-53
2022/07/28 08:31:01;;;;;;;1.60;0.73;;;20.70;99.90;;;;;;5013010;28;20627;-54
2022/07/28 08:33:29;;;;;;;1.90;0.80;;;20.90;99.90;;;;;;5014530;28;21509;-54
2022/07/28 08:35:56;;;;;;;4.60;0.70;;;21.10;99.90;;;;;;5015565;28;20210;-55
2022/07/28 08:38:23;;;;;;;1.90;0.83;;;21.40;99.90;;;;;;5017141;28;20544;-53
2022/07/28 08:40:52;;;;;;;1.67;0.90;;;21.20;99.90;;;;;;5015717;28;20929;-54
2022/07/28 08:43:25;;;;;;;3.93;0.57;;;21.20;99.90;;;;;;5009092;28;20279;-54
2022/07/28 08:45:53;;;;;;;1.23;0.67;;;21.40;99.90;;;;;;5015075;28;20223;-58
2022/07/28 08:48:28;;;;;;;2.43;0.50;;;21.10;99.90;;;;;;5015668;28;20600;-53
2022/07/28 08:51:01;;;;;;;1.63;0.70;;;21.30;99.90;;;;;;5018047;28;20201;-54
2022/07/28 08:53:31;;;;;;;2.43;0.57;;;21.60;99.90;;;;;;5014619;28;20208;-55
2022/07/28 08:56:04;;;;;;;3.47;0.80;;;21.90;99.90;;;;;;5014613;28;20206;-54
2022/07/28 08:58:33;;;;;;;2.67;0.70;;;22.10;99.90;;;;;;5014656;28;20727;-54
2022/07/28 09:01:00;;;;;;;1.17;0.80;;;22.20;99.90;;;;;;5013342;28;20869;-54
2022/07/28 09:03:28;;;;;;;1.93;0.77;;;22.10;99.90;;;;;;5017447;28;20225;-54
2022/07/28 09:05:56;;;;;;;3.27;0.80;;;22.00;99.90;;;;;;5013686;28;20208;-54
2022/07/28 09:08:24;;;;;;;2.30;1.00;;;22.20;99.90;;;;;;5013228;28;20204;-53
2022/07/28 09:10:51;;;;;;;2.13;0.63;;;22.10;99.90;;;;;;5011173;28;20217;-54
2022/07/28 09:13:19;;;;;;;2.73;0.60;;;22.10;99.90;;;;;;5010781;28;20215;-54
2022/07/28 09:15:46;;;;;;;4.17;0.60;;;22.30;99.90;;;;;;5014303;28;20232;-54
2022/07/28 09:18:16;;;;;;;3.60;0.70;;;22.70;99.90;;;;;;5009671;28;20836;-54
2022/07/28 09:20:44;;;;;;;2.70;0.80;;;22.80;99.90;;;;;;5010035;28;20207;-53
2022/07/28 09:23:12;;;;;;;2.10;0.70;;;22.40;99.90;;;;;;5012408;28;20707;-54
2022/07/28 09:26:07;;;;;;;1.47;0.63;;;22.50;99.90;;;;;;5038723;28;20319;-55
2022/07/28 09:28:56;;;;;;;4.33;0.80;;;22.70;99.90;;;;;;5009713;28;20823;-54
2022/07/28 09:31:24;;;;;;;1.70;0.70;;;22.50;99.90;;;;;;5010546;28;20663;-54
2022/07/28 09:33:56;;;;;;;1.43;0.70;;;22.40;99.90;;;;;;5010149;28;20933;-54
2022/07/28 09:36:23;;;;;;;1.10;0.50;;;22.30;99.90;;;;;;5013765;28;20661;-53
2022/07/28 09:38:50;;;;;;;2.90;0.57;;;22.80;99.90;;;;;;5011392;28;20205;-54
2022/07/28 09:41:20;;;;;;;4.67;0.70;;;23.20;99.90;;;;;;5011286;28;20288;-53
2022/07/28 09:43:49;;;;;;;2.10;0.70;;;22.90;99.90;;;;;;5010304;28;20235;-54
2022/07/28 09:46:23;;;;;;;5.73;0.90;;;22.80;99.90;;;;;;5011752;28;20282;-54
2022/07/28 09:49:00;;;;;;;2.93;0.90;;;22.90;99.90;;;;;;5012238;28;20194;-55
2022/07/28 09:51:29;;;;;;;1.50;0.80;;;22.80;99.90;;;;;;5015446;28;20197;-54
2022/07/28 09:54:08;;;;;;;2.67;1.33;;;23.10;99.90;;;;;;5013655;28;20590;-54
2022/07/28 09:56:37;;;;;;;1.37;0.70;;;22.80;99.90;;;;;;5010065;28;20212;-54
2022/07/28 09:59:04;;;;;;;3.27;0.80;;;22.80;99.90;;;;;;5009996;28;20261;-53
2022/07/28 10:01:48;;;;;;;2.13;0.63;;;22.80;99.90;;;;;;5009479;28;20290;-54
2022/07/28 10:04:31;;;;;;;3.07;0.77;;;23.10;99.90;;;;;;5011778;28;20281;-54
2022/07/28 10:07:14;;;;;;;1.23;0.60;;;23.20;99.90;;;;;;5012217;28;20202;-55
2022/07/28 10:09:41;;;;;;;3.43;0.90;;;23.30;99.90;;;;;;5014392;28;20620;-54
2022/07/28 10:12:19;;;;;;;5.27;1.10;;;23.40;99.90;;;;;;5008451;28;20217;-54
2022/07/28 10:14:47;;;;;;;4.33;0.97;;;23.30;99.90;;;;;;5009777;28;20197;-54
2022/07/28 10:17:28;;;;;;;3.73;0.80;;;23.30;99.90;;;;;;4996446;28;20232;-53
2022/07/28 10:19:57;;;;;;;2.00;0.80;;;23.30;99.90;;;;;;5024282;28;20208;-57
2022/07/28 10:22:27;;;;;;;2.40;0.87;;;22.90;99.90;;;;;;5014984;28;20209;-55
2022/07/28 10:24:56;;;;;;;1.37;0.60;;;23.10;99.90;;;;;;5012267;28;21573;-53
2022/07/28 10:27:24;;;;;;;1.37;0.90;;;23.10;99.90;;;;;;5007294;28;20575;-54
2022/07/28 10:29:58;;;;;;;1.73;0.93;;;23.20;99.90;;;;;;5005935;28;20201;-54
2022/07/28 10:32:28;;;;;;;3.37;0.87;;;23.20;99.90;;;;;;5008618;28;20595;-54
2022/07/28 10:35:07;;;;;;;3.13;0.90;;;23.00;99.90;;;;;;5012507;28;20283;-54
2022/07/28 10:37:42;;;;;;;3.63;1.00;;;22.90;99.90;;;;;;5010067;28;20255;-54
2022/07/28 10:40:11;;;;;;;3.17;0.60;;;23.00;99.90;;;;;;5008996;28;20204;-54
2022/07/28 10:42:39;;;;;;;1.70;0.70;;;23.00;99.90;;;;;;5009110;28;20257;-53
2022/07/28 10:45:11;;;;;;;5.30;1.03;;;22.90;99.90;;;;;;5007459;28;20236;-54
2022/07/28 10:47:38;;;;;;;4.37;0.97;;;22.60;99.90;;;;;;5009203;28;20325;-54
2022/07/28 10:50:07;;;;;;;1.27;0.80;;;22.70;99.90;;;;;;5008856;28;20201;-54
2022/07/28 10:52:36;;;;;;;2.97;0.93;;;22.60;99.90;;;;;;5008852;28;20202;-54
2022/07/28 10:55:28;;;;;;;6.87;1.07;;;22.60;99.90;;;;;;5009230;28;20227;-53
2022/07/28 10:58:21;;;;;;;2.63;0.80;;;22.80;99.90;;;;;;5006528;28;20214;-57
2022/07/28 11:00:52;;;;;;;1.73;0.60;;;23.00;99.90;;;;;;5013243;28;20282;-56
2022/07/28 11:03:45;;;;;;;2.07;0.80;;;22.70;99.90;;;;;;5007159;28;21324;-57
2022/07/28 11:06:35;;;;;;;3.17;0.83;;;23.00;99.90;;;;;;5007505;28;20604;-54
2022/07/28 11:09:15;;;;;;;3.87;0.90;;;22.70;99.90;;;;;;5012274;28;20207;-54
2022/07/28 11:12:03;;;;;;;2.10;0.93;;;23.10;99.90;;;;;;5008025;28;20280;-55
2022/07/28 11:14:36;;;;;;;2.83;0.83;;;23.00;99.90;;;;;;5004262;28;20316;-57
2022/07/28 11:17:05;;;;;;;1.60;0.60;;;23.00;99.90;;;;;;5005433;28;20694;-55
2022/07/28 11:19:42;;;;;;;3.13;0.97;;;23.10;99.90;;;;;;5006175;28;20208;-57
2022/07/28 11:22:31;;;;;;;1.60;1.10;;;23.20;99.90;;;;;;5008207;28;20657;-54
2022/07/28 11:25:03;;;;;;;1.77;0.67;;;23.40;99.90;;;;;;5011920;28;20267;-55
2022/07/28 11:27:50;;;;;;;3.30;0.83;;;23.40;99.90;;;;;;5004321;28;20228;-52
2022/07/28 11:30:18;;;;;;;2.00;0.73;;;23.60;99.90;;;;;;5010525;28;20200;-55
2022/07/28 11:32:56;;;;;;;4.03;0.90;;;23.60;99.90;;;;;;5010008;28;21219;-54
2022/07/28 11:35:25;;;;;;;3.83;1.00;;;23.70;99.90;;;;;;5009197;28;20244;-55
2022/07/28 11:38:00;;;;;;;1.97;1.00;;;23.50;99.90;;;;;;5006270;28;20960;-56
2022/07/28 11:40:42;;;;;;;1.80;0.87;;;23.70;99.90;;;;;;5011108;28;20210;-55
2022/07/28 11:46:03;;;;;;;2.17;0.80;;;23.60;99.90;;;;;;5007380;28;20216;-54
2022/07/28 11:48:43;;;;;;;2.17;0.80;;;23.60;99.90;;;;;;5008860;28;20253;-56
2022/07/28 11:51:12;;;;;;;3.93;0.80;;;23.50;99.90;;;;;;5022689;28;20201;-54
2022/07/28 11:53:46;;;;;;;3.27;0.90;;;23.50;99.90;;;;;;5010756;28;20830;-54
2022/07/28 11:56:37;;;;;;;3.30;0.90;;;23.60;99.90;;;;;;5006649;28;20264;-54
2022/07/28 11:59:06;;;;;;;5.97;0.90;;;23.70;99.90;;;;;;5006405;28;20675;-57
2022/07/28 12:01:34;;;;;;;2.77;0.90;;;23.70;99.90;;;;;;5009129;28;20208;-56
2022/07/28 12:04:14;;;;;;;2.13;0.77;;;23.80;99.90;;;;;;4992364;28;20295;-56
2022/07/28 12:06:45;;;;;;;3.50;1.00;;;24.10;99.90;;;;;;5009703;28;20201;-57
2022/07/28 12:09:17;;;;;;;4.93;1.27;;;24.80;99.90;;;;;;5033733;28;20208;-56
2022/07/28 12:11:54;;;;;;;3.03;1.00;;;25.00;99.90;;;;;;5008205;28;20211;-56
2022/07/28 12:14:21;;;;;;;1.73;0.90;;;25.00;99.90;;;;;;5007960;28;20652;-55
2022/07/28 12:16:51;;;;;;;3.37;0.97;;;24.80;99.90;;;;;;5006749;28;20244;-55
2022/07/28 12:19:19;;;;;;;3.33;0.93;;;24.80;99.90;;;;;;5013948;28;20461;-55
2022/07/28 12:21:57;;;;;;;2.67;1.00;;;24.20;99.90;;;;;;5007580;28;20322;-54
2022/07/28 12:24:28;;;;;;;1.33;0.73;;;24.50;99.90;;;;;;5029929;28;20549;-54
2022/07/28 12:26:56;;;;;;;3.47;0.90;;;24.80;99.90;;;;;;5015259;28;20200;-57
2022/07/28 12:29:28;;;;;;;1.53;0.70;;;25.00;99.90;;;;;;5007186;28;20217;-54
2022/07/28 12:32:03;;;;;;;0.80;0.60;;;24.70;99.90;;;;;;5011387;28;20204;-55
2022/07/28 12:34:33;;;;;;;1.17;0.70;;;24.90;99.90;;;;;;5012472;28;20197;-55
2022/07/28 12:37:04;;;;;;;1.50;0.60;;;24.70;99.90;;;;;;5003765;28;21696;-54
2022/07/28 12:39:35;;;;;;;2.50;0.60;;;24.40;99.90;;;;;;5013362;28;20239;-63
2022/07/28 12:42:03;;;;;;;2.60;1.00;;;24.30;99.90;;;;;;5026100;28;20776;-54
2022/07/28 12:44:41;;;;;;;2.00;0.97;;;24.10;99.90;;;;;;5006320;28;20891;-55
2022/07/28 12:47:10;;;;;;;3.10;0.80;;;24.40;99.90;;;;;;5009349;28;20731;-54
2022/07/28 12:49:40;;;;;;;2.00;0.57;;;24.40;99.90;;;;;;5008017;28;20208;-55
2022/07/28 12:52:19;;;;;;;2.40;0.90;;;24.20;99.90;;;;;;5010683;28;20263;-54
2022/07/28 12:54:52;;;;;;;1.80;0.70;;;23.80;99.90;;;;;;5005618;28;20260;-53
2022/07/28 12:57:41;;;;;;;3.83;0.90;;;23.60;99.90;;;;;;5010714;28;20276;-53
2022/07/28 13:00:21;;;;;;;1.60;0.70;;;24.00;99.90;;;;;;5009759;28;20209;-54
2022/07/28 13:02:50;;;;;;;1.77;0.80;;;24.10;99.90;;;;;;5027293;28;20213;-55
2022/07/28 13:06:20;;;;;;;4.83;0.90;;;24.00;99.90;;;;;;5039212;28;20683;-56
2022/07/28 13:08:25;;;;;;;2.17;0.80;;;24.00;99.90;;;;;;5006606;28;20679;-55
2022/07/28 13:10:53;;;;;;;3.63;0.83;;;23.80;99.90;;;;;;5011520;28;20672;-55
2022/07/28 13:13:24;;;;;;;2.93;1.00;;;24.10;99.90;;;;;;5005786;28;20210;-55
2022/07/28 13:16:10;;;;;;;1.73;0.90;;;24.60;99.90;;;;;;5006647;28;20632;-53